Airfield :
LOGIN :

Register | Disclaimer

   EN    FR    IT 

 










Legend :    VFR   Marginal VFR   IFR   Intensive IFR   Very Intensive IFR
Visi :
Ceiling :
>= 8 km
>= 3000ft
5 to 8 km
1000 to 3000 ft
1500m to 5 km
500 to 1000 ft
800 to 1500m
200 to 500 ft
< 800m
< 200 ft
Symbols :   Thunderstorms  Fog  Heavy snow  Heavy precipitations  Wind > 20 kt
SIGMETs :     Misc.  Thunderstorms  Icing  Turbulence  Mountain Waves  Volcanic Ashes






- Airport Elevation : 1000 ft
- IATA code : PEV


LHPP - Pécs Pogany

CURRENT METAR :
  • 162145Z AUTO 03005KT CAVOK 18/14 Q1013

EXPIRED METARs :
  • 162115Z AUTO 05003KT CAVOK 19/15 Q1013
  • 162045Z AUTO 04003KT CAVOK 20/14 Q1013
  • 162015Z AUTO 03003KT 360V070 CAVOK 19/15 Q1013
  • 161945Z AUTO 05004KT CAVOK 21/15 Q1013
  • 161915Z AUTO 03005KT CAVOK 21/15 Q1013
  • 161845Z AUTO 01005KT CAVOK 22/15 Q1012
  • 161815Z AUTO 36005KT CAVOK 22/16 Q1012
  • 161745Z AUTO 33005KT CAVOK 22/16 Q1012
  • 161715Z AUTO 31004KT CAVOK 23/17 Q1012

TAF TAF LHPP
Valid from the 16 at 21:00 until the 17 at 06:00 UTC


162015Z 1621/1706 VRB02KT CAVOK
PROB30
TEMPO 1621/1703 VRB12G22KT 8000 SHRA TSRA BKN040CB



MET'MAP, your aeronautical weather chart ! - Copyright ORBIFLY December 2007 - Disclaimer

ORBIFLY MET'MAP TEAM :

Programming & Development : Alexandra Zaïnal
Original concept : Baudouin d'Aumeries
Technical & hardware support : Manuel Goepfert
Assistance : Marc-Olivier Méhu




SOURCES & CREDITS :

   NOAA